createdAt,value
2023-06-19T00:01:40.397Z,97855.56
2023-06-19T00:04:07.078Z,97858.28
2023-06-19T00:06:33.803Z,97856.75
2023-06-19T00:09:00.344Z,97859.47
2023-06-19T00:11:26.897Z,97862.94
2023-06-19T00:13:53.559Z,97869.25
2023-06-19T00:16:20.339Z,97862.13
2023-06-19T00:18:47.445Z,97863.50
2023-06-19T00:21:13.977Z,97867.69
2023-06-19T00:23:40.558Z,97864.81
2023-06-19T00:26:07.850Z,97858.38
2023-06-19T00:28:35.639Z,97861.88
2023-06-19T00:31:02.302Z,97862.59
2023-06-19T00:33:30.244Z,97872.53
2023-06-19T00:35:56.893Z,97868.31
2023-06-19T00:38:24.802Z,97868.41
2023-06-19T00:40:51.347Z,97869.16
2023-06-19T00:43:18.457Z,97870.66
2023-06-19T00:45:45.057Z,97872.16
2023-06-19T00:48:11.820Z,97864.34
2023-06-19T00:50:38.490Z,97867.91
2023-06-19T00:53:05.686Z,97873.63
2023-06-19T00:55:33.424Z,97874.34
2023-06-19T00:58:01.666Z,97886.38
2023-06-19T01:00:28.270Z,97879.31
2023-06-19T01:02:57.277Z,97885.00
2023-06-19T01:05:23.958Z,97887.81
2023-06-19T01:08:18.851Z,97882.84
2023-06-19T01:10:48.775Z,97885.00
2023-06-19T01:13:23.623Z,97887.09
2023-06-19T01:15:50.763Z,97902.03
2023-06-19T01:18:17.794Z,97914.03
2023-06-19T01:20:44.889Z,97940.25
2023-06-19T01:23:12.386Z,97951.41
2023-06-19T01:25:40.368Z,97954.50
2023-06-19T01:28:10.785Z,97966.81
2023-06-19T01:30:42.300Z,97973.31
2023-06-19T01:33:28.905Z,97964.16
2023-06-19T01:35:55.584Z,97959.16
2023-06-19T01:38:22.342Z,97961.53
2023-06-19T01:40:53.779Z,97968.06
2023-06-19T01:43:20.653Z,97969.13
2023-06-19T01:45:47.272Z,97972.28
2023-06-19T01:48:15.354Z,97973.63
2023-06-19T01:50:49.297Z,97980.59
2023-06-19T01:53:16.237Z,97982.97
2023-06-19T01:55:42.957Z,97979.44
2023-06-19T01:58:09.673Z,97978.13
2023-06-19T02:00:36.390Z,97972.41
2023-06-19T02:03:03.247Z,97978.59
2023-06-19T02:05:30.799Z,97976.13
2023-06-19T02:07:57.541Z,97975.53
2023-06-19T02:10:24.359Z,97978.34
2023-06-19T02:12:51.119Z,97966.91
2023-06-19T02:15:17.802Z,97967.63
2023-06-19T02:17:45.286Z,97964.53
2023-06-19T02:20:12.412Z,97968.63
2023-06-19T02:22:39.716Z,97968.69
2023-06-19T02:25:07.200Z,97969.25
2023-06-19T02:27:33.628Z,97963.19
2023-06-19T02:30:00.234Z,97964.63
2023-06-19T02:32:27.655Z,97963.34
2023-06-19T02:34:55.614Z,97961.22
2023-06-19T02:37:22.192Z,97964.13
2023-06-19T02:39:48.815Z,97966.16
2023-06-19T02:42:15.642Z,97957.50
2023-06-19T02:44:46.759Z,97961.03
2023-06-19T02:47:13.303Z,97952.47
2023-06-19T02:49:39.883Z,97952.34
2023-06-19T02:52:07.138Z,97956.47
2023-06-19T02:54:33.799Z,97960.69
2023-06-19T02:57:01.021Z,97969.88
2023-06-19T02:59:27.655Z,97974.78
2023-06-19T03:01:54.218Z,97977.50
2023-06-19T03:04:20.770Z,97972.56
2023-06-19T03:06:47.309Z,97975.25
2023-06-19T03:09:13.904Z,97976.75
2023-06-19T03:11:41.043Z,97983.13
2023-06-19T03:14:08.613Z,97987.47
2023-06-19T03:16:36.056Z,97995.31
2023-06-19T03:19:03.612Z,97991.13
2023-06-19T03:21:30.179Z,98000.25
2023-06-19T03:23:56.814Z,97990.81
2023-06-19T03:26:25.920Z,98001.47
2023-06-19T03:28:52.912Z,98003.44
2023-06-19T03:31:20.260Z,98004.22
2023-06-19T03:33:46.981Z,98002.06
2023-06-19T03:36:14.128Z,98002.00
2023-06-19T03:38:51.222Z,98001.81
2023-06-19T03:41:21.341Z,98003.34
2023-06-19T03:43:48.130Z,98003.94
2023-06-19T03:46:15.346Z,98008.81
2023-06-19T03:48:41.978Z,98015.28
2023-06-19T03:51:08.556Z,98019.56
2023-06-19T03:53:35.141Z,98018.72
2023-06-19T03:56:02.155Z,98019.34
2023-06-19T03:58:28.733Z,98019.34
2023-06-19T04:00:55.328Z,98027.91
2023-06-19T04:03:22.026Z,98023.03
2023-06-19T04:05:48.765Z,98022.34
2023-06-19T04:08:15.437Z,98025.81
2023-06-19T04:10:43.716Z,98026.03
2023-06-19T04:13:10.411Z,98026.78
2023-06-19T04:15:38.350Z,98028.84
2023-06-19T04:18:05.265Z,98032.53
2023-06-19T04:20:31.992Z,98043.09
2023-06-19T04:22:58.570Z,98042.59
2023-06-19T04:25:25.151Z,98041.28
2023-06-19T04:27:52.281Z,98049.72
2023-06-19T04:30:22.107Z,98058.53
2023-06-19T04:32:49.044Z,98065.28
2023-06-19T04:35:15.638Z,98060.03
2023-06-19T04:37:42.173Z,98062.00
2023-06-19T04:40:09.164Z,98065.75
2023-06-19T04:42:35.728Z,98060.94
2023-06-19T04:45:02.318Z,98069.56
2023-06-19T04:47:36.717Z,98056.47
2023-06-19T04:50:16.680Z,98063.47
2023-06-19T04:52:43.430Z,98060.88
2023-06-19T04:55:11.360Z,98062.50
2023-06-19T04:57:38.561Z,98067.94
2023-06-19T05:00:11.465Z,98063.00
2023-06-19T05:02:38.264Z,98061.44
2023-06-19T05:05:05.376Z,98059.00
2023-06-19T05:07:32.402Z,98061.72
2023-06-19T05:10:01.864Z,98061.72
2023-06-19T05:12:28.387Z,98069.00
2023-06-19T05:14:54.959Z,98066.94
2023-06-19T05:17:21.948Z,98077.31
2023-06-19T05:19:48.929Z,98081.63
2023-06-19T05:22:15.595Z,98076.34
2023-06-19T05:24:42.246Z,98073.88
2023-06-19T05:27:08.820Z,98078.28
2023-06-19T05:29:35.466Z,98067.34
2023-06-19T05:32:02.015Z,98071.13
2023-06-19T05:34:28.740Z,98071.63
2023-06-19T05:36:55.349Z,98071.38
2023-06-19T05:39:21.910Z,98069.91
2023-06-19T05:41:48.668Z,98067.50
2023-06-19T05:44:17.676Z,98078.28
2023-06-19T05:46:44.350Z,98079.22
2023-06-19T05:49:11.183Z,98084.13
2023-06-19T05:51:37.902Z,98096.13
2023-06-19T05:54:05.051Z,98094.22
2023-06-19T05:56:33.994Z,98100.00
2023-06-19T05:59:02.185Z,98101.41
2023-06-19T06:01:29.088Z,98105.09
2023-06-19T06:03:56.384Z,98108.69
2023-06-19T06:06:26.770Z,98118.34
2023-06-19T06:08:53.634Z,98110.19
2023-06-19T06:11:20.380Z,98108.59
2023-06-19T06:13:47.037Z,98114.44
2023-06-19T06:16:15.209Z,98113.81
2023-06-19T06:18:41.957Z,98111.88
2023-06-19T06:21:09.277Z,98106.31
2023-06-19T06:23:35.864Z,98108.28
2023-06-19T06:26:03.771Z,98100.72
2023-06-19T06:28:30.769Z,98113.78
2023-06-19T06:30:57.394Z,98112.66
2023-06-19T06:33:24.677Z,98114.53
2023-06-19T06:35:52.567Z,98113.25
2023-06-19T06:38:19.264Z,98121.47
2023-06-19T06:40:45.868Z,98118.94
2023-06-19T06:43:12.652Z,98116.75
2023-06-19T06:45:39.425Z,98130.75
2023-06-19T06:48:08.104Z,98124.22
2023-06-19T06:50:34.876Z,98133.16
2023-06-19T06:53:01.671Z,98134.09
2023-06-19T06:55:28.280Z,98136.53
2023-06-19T06:57:54.938Z,98141.22
2023-06-19T07:00:21.791Z,98138.69
2023-06-19T07:02:51.293Z,98143.00
2023-06-19T07:05:18.153Z,98142.38
2023-06-19T07:07:44.718Z,98144.75
2023-06-19T07:10:11.404Z,98139.84
2023-06-19T07:12:46.284Z,98146.78
2023-06-19T07:15:12.999Z,98142.16
2023-06-19T07:17:39.637Z,98141.19
2023-06-19T07:20:07.451Z,98140.91
2023-06-19T07:22:34.140Z,98139.88
2023-06-19T07:25:00.729Z,98143.13
2023-06-19T07:27:28.663Z,98151.72
2023-06-19T07:29:55.317Z,98151.78
2023-06-19T07:32:21.919Z,98153.75
2023-06-19T07:34:48.765Z,98146.34
2023-06-19T07:37:18.997Z,98154.28
2023-06-19T07:39:50.696Z,98153.59
2023-06-19T07:42:18.918Z,98152.06
2023-06-19T07:44:45.969Z,98154.47
2023-06-19T07:47:12.995Z,98160.22
2023-06-19T07:49:39.561Z,98164.09
2023-06-19T07:52:06.642Z,98161.78
2023-06-19T07:54:35.248Z,98160.41
2023-06-19T07:57:02.043Z,98161.19
2023-06-19T07:59:28.701Z,98157.91
2023-06-19T08:01:55.314Z,98161.56
2023-06-19T08:04:21.859Z,98169.53
2023-06-19T08:06:48.411Z,98173.09
2023-06-19T08:09:15.061Z,98173.44
2023-06-19T08:11:41.674Z,98178.31
2023-06-19T08:14:08.458Z,98171.78
2023-06-19T08:16:35.067Z,98165.69
2023-06-19T08:19:01.608Z,98165.66
2023-06-19T08:21:28.515Z,98166.53
2023-06-19T08:23:55.144Z,98169.50
2023-06-19T08:26:21.738Z,98157.38
2023-06-19T08:28:48.862Z,98150.22
2023-06-19T08:31:15.516Z,98164.50
2023-06-19T08:33:42.051Z,98149.38
2023-06-19T08:36:08.654Z,98145.16
2023-06-19T08:38:35.259Z,98150.44
2023-06-19T08:41:01.802Z,98141.41
2023-06-19T08:43:28.506Z,98144.78
2023-06-19T08:46:07.192Z,98140.09
2023-06-19T08:48:36.351Z,98144.53
2023-06-19T08:51:05.241Z,98143.88
2023-06-19T08:53:46.258Z,98142.31
2023-06-19T08:56:12.917Z,98136.63
2023-06-19T08:58:39.516Z,98140.53
2023-06-19T09:01:06.358Z,98143.59
2023-06-19T09:03:33.056Z,98137.00
2023-06-19T09:06:08.415Z,98143.34
2023-06-19T09:08:35.544Z,98137.31
2023-06-19T09:11:03.360Z,98146.19
2023-06-19T09:13:30.706Z,98138.72
2023-06-19T09:16:05.189Z,98128.72
2023-06-19T09:18:33.144Z,98138.19
2023-06-19T09:20:59.936Z,98139.88
2023-06-19T09:23:26.553Z,98130.38
2023-06-19T09:25:58.893Z,98134.84
2023-06-19T09:28:27.572Z,98141.38
2023-06-19T09:31:04.060Z,98139.25
2023-06-19T09:33:32.629Z,98125.81
2023-06-19T09:36:00.558Z,98137.13
2023-06-19T09:38:28.955Z,98121.66
2023-06-19T09:40:57.774Z,98126.69
2023-06-19T09:43:26.774Z,98124.75
2023-06-19T09:45:56.786Z,98127.88
2023-06-19T09:48:29.829Z,98134.50
2023-06-19T09:51:01.698Z,98134.66
2023-06-19T09:53:28.682Z,98133.19
2023-06-19T09:55:57.141Z,98138.06
2023-06-19T09:58:23.927Z,98133.34
2023-06-19T10:00:51.843Z,98122.44
2023-06-19T10:03:18.588Z,98122.59
2023-06-19T10:05:45.588Z,98123.44
2023-06-19T10:08:12.142Z,98126.84
2023-06-19T10:10:48.811Z,98127.63
2023-06-19T10:13:18.972Z,98124.59
2023-06-19T10:15:46.210Z,98116.69
2023-06-19T10:18:19.234Z,98126.00
2023-06-19T10:20:47.819Z,98122.41
2023-06-19T10:23:24.886Z,98116.06
2023-06-19T10:25:54.777Z,98122.53
2023-06-19T10:28:26.452Z,98121.09
2023-06-19T10:30:57.470Z,98118.97
2023-06-19T10:33:25.490Z,98108.88
2023-06-19T10:35:52.270Z,98110.31
2023-06-19T10:38:18.948Z,98105.38
2023-06-19T10:40:47.405Z,98109.56
2023-06-19T10:43:20.647Z,98103.97
2023-06-19T10:45:47.336Z,98106.00
2023-06-19T10:48:19.767Z,98098.22
2023-06-19T10:50:46.326Z,98104.72
2023-06-19T10:53:12.839Z,98101.16
2023-06-19T10:55:39.387Z,98099.69
2023-06-19T10:58:05.932Z,98106.75
2023-06-19T11:00:34.872Z,98106.78
2023-06-19T11:03:01.487Z,98093.91
2023-06-19T11:05:28.727Z,98085.97
2023-06-19T11:07:59.697Z,98090.31
2023-06-19T11:10:29.222Z,98098.81
2023-06-19T11:12:57.552Z,98101.03
2023-06-19T11:15:36.576Z,98106.75
2023-06-19T11:18:04.060Z,98108.13
2023-06-19T11:20:31.451Z,98098.28
2023-06-19T11:23:02.206Z,98101.06
2023-06-19T11:25:38.984Z,98095.44
2023-06-19T11:28:06.575Z,98094.72
2023-06-19T11:30:34.772Z,98090.44
2023-06-19T11:33:02.902Z,98093.22
2023-06-19T11:35:37.297Z,98094.66
2023-06-19T11:38:05.217Z,98086.00
2023-06-19T11:40:40.595Z,98081.16
2023-06-19T11:43:07.433Z,98081.88
2023-06-19T11:45:34.003Z,98080.47
2023-06-19T11:48:00.568Z,98081.25
2023-06-19T11:50:30.432Z,98079.06
2023-06-19T11:53:01.083Z,98089.06
2023-06-19T11:55:27.795Z,98081.84
2023-06-19T11:57:54.392Z,98086.09
2023-06-19T12:00:21.102Z,98079.66
2023-06-19T12:02:48.920Z,98079.63
2023-06-19T12:05:15.629Z,98086.06
2023-06-19T12:07:42.249Z,98081.03
2023-06-19T12:10:11.272Z,98083.88
2023-06-19T12:12:38.936Z,98072.53
2023-06-19T12:15:06.720Z,98071.94
2023-06-19T12:17:34.149Z,98070.47
2023-06-19T12:20:01.942Z,98071.31
2023-06-19T12:22:29.247Z,98064.09
2023-06-19T12:24:55.668Z,98060.44
2023-06-19T12:27:22.108Z,98059.84
2023-06-19T12:29:49.355Z,98063.13
2023-06-19T12:32:15.907Z,98058.34
2023-06-19T12:34:47.401Z,98059.13
2023-06-19T12:37:20.287Z,98061.94
2023-06-19T12:39:47.383Z,98058.38
2023-06-19T12:42:14.275Z,98055.59
2023-06-19T12:44:41.310Z,98048.47
2023-06-19T12:47:09.149Z,98050.63
2023-06-19T12:49:35.834Z,98051.38
2023-06-19T12:52:02.395Z,98051.44
2023-06-19T12:54:29.479Z,98054.28
2023-06-19T12:56:56.186Z,98051.44
2023-06-19T12:59:22.948Z,98056.47
2023-06-19T13:01:49.687Z,98058.63
2023-06-19T13:04:16.794Z,98052.91
2023-06-19T13:06:43.518Z,98049.34
2023-06-19T13:09:10.406Z,98042.88
2023-06-19T13:11:37.074Z,98045.72
2023-06-19T13:14:03.746Z,98049.28
2023-06-19T13:19:07.596Z,98027.81
2023-06-19T13:21:36.459Z,98029.25
2023-06-19T13:24:03.052Z,98024.22
2023-06-19T13:26:29.626Z,98016.31
2023-06-19T13:28:59.812Z,98014.19
2023-06-19T13:31:26.787Z,98007.75
2023-06-19T13:33:53.658Z,98007.03
2023-06-19T13:36:20.679Z,98017.00
2023-06-19T13:38:47.894Z,98007.03
2023-06-19T13:41:14.661Z,97999.16
2023-06-19T13:43:41.330Z,98002.72
2023-06-19T13:46:08.125Z,98000.59
2023-06-19T13:48:34.638Z,97995.59
2023-06-19T13:51:01.834Z,97987.72
2023-06-19T13:53:30.772Z,97994.16
2023-06-19T13:55:57.533Z,97982.69
2023-06-19T13:58:25.746Z,97982.72
2023-06-19T14:00:52.419Z,97982.72
2023-06-19T14:03:19.323Z,97987.00
2023-06-19T14:05:46.267Z,97981.28
2023-06-19T14:08:12.878Z,97987.00
2023-06-19T14:10:39.619Z,97984.13
2023-06-19T14:13:06.242Z,97976.97
2023-06-19T14:15:32.816Z,97974.78
2023-06-19T14:17:59.418Z,97969.78
2023-06-19T14:20:26.279Z,97965.53
2023-06-19T14:22:53.017Z,97966.22
2023-06-19T14:25:19.630Z,97969.06
2023-06-19T14:27:46.171Z,97952.59
2023-06-19T14:30:12.858Z,97956.91
2023-06-19T14:32:39.492Z,97947.59
2023-06-19T14:35:06.765Z,97948.28
2023-06-19T14:37:33.449Z,97947.56
2023-06-19T14:40:00.096Z,97946.16
2023-06-19T14:42:26.920Z,97946.81
2023-06-19T14:44:53.461Z,97948.94
2023-06-19T14:47:20.039Z,97956.03
2023-06-19T14:49:46.900Z,97943.88
2023-06-19T14:52:17.037Z,97941.03
2023-06-19T14:54:43.828Z,97936.69
2023-06-19T14:57:11.180Z,97940.88
2023-06-19T14:59:37.846Z,97934.31
2023-06-19T15:02:04.973Z,97933.53
2023-06-19T15:04:32.419Z,97937.94
2023-06-19T15:06:59.076Z,97927.19
2023-06-19T15:09:27.010Z,97921.56
2023-06-19T15:11:53.604Z,97917.97
2023-06-19T15:14:20.711Z,97919.41
2023-06-19T15:16:47.241Z,97916.47
2023-06-19T15:19:13.942Z,97913.59
2023-06-19T15:21:42.220Z,97916.59
2023-06-19T15:24:09.237Z,97911.56
2023-06-19T15:26:38.372Z,97897.81
2023-06-19T15:29:06.667Z,97898.75
2023-06-19T15:31:33.247Z,97885.69
2023-06-19T15:33:59.953Z,97895.41
2023-06-19T15:36:26.862Z,97892.31
2023-06-19T15:38:53.424Z,97895.19
2023-06-19T15:41:19.931Z,97890.06
2023-06-19T15:43:46.522Z,97893.63
2023-06-19T15:46:15.312Z,97891.84
2023-06-19T15:48:43.042Z,97904.16
2023-06-19T15:51:09.598Z,97897.16
2023-06-19T15:53:38.612Z,97902.25
2023-06-19T15:56:05.264Z,97905.88
2023-06-19T15:58:31.881Z,97913.81
2023-06-19T16:00:59.250Z,97911.00
2023-06-19T16:03:27.162Z,97908.84
2023-06-19T16:08:26.212Z,97916.03
2023-06-19T16:10:52.854Z,97915.34
2023-06-19T16:13:19.748Z,97911.69
2023-06-19T16:15:46.464Z,97913.84
2023-06-19T16:18:13.022Z,97911.72
2023-06-19T16:20:39.762Z,97911.75
2023-06-19T16:23:06.562Z,97906.75
2023-06-19T16:25:33.127Z,97905.28
2023-06-19T16:28:02.268Z,97909.63
2023-06-19T16:30:29.892Z,97898.13
2023-06-19T16:32:56.740Z,97898.84
2023-06-19T16:35:23.683Z,97898.16
2023-06-19T16:37:54.470Z,97898.19
2023-06-19T16:40:22.527Z,97906.06
2023-06-19T16:42:49.771Z,97909.63
2023-06-19T16:45:16.460Z,97907.47
2023-06-19T16:47:43.037Z,97911.00
2023-06-19T16:50:09.913Z,97913.09
2023-06-19T16:52:36.546Z,97907.38
2023-06-19T16:55:03.296Z,97913.78
2023-06-19T16:57:30.979Z,97918.88
2023-06-19T16:59:57.890Z,97909.44
2023-06-19T17:02:24.574Z,97907.91
2023-06-19T17:04:51.517Z,97909.44
2023-06-19T17:07:18.382Z,97912.91
2023-06-19T17:09:47.038Z,97907.06
2023-06-19T17:12:14.502Z,97902.00
2023-06-19T17:14:42.618Z,97905.44
2023-06-19T17:17:09.338Z,97901.69
2023-06-19T17:19:36.299Z,97911.78
2023-06-19T17:22:02.846Z,97921.78
2023-06-19T17:24:29.485Z,97921.88
2023-06-19T17:26:58.360Z,97924.75
2023-06-19T17:29:27.532Z,97915.38
2023-06-19T17:31:55.208Z,97919.66
2023-06-19T17:34:21.789Z,97920.31
2023-06-19T17:36:48.427Z,97923.84
2023-06-19T17:39:15.694Z,97920.91
2023-06-19T17:41:42.914Z,97927.31
2023-06-19T17:44:09.725Z,97930.72
2023-06-19T17:46:39.440Z,97935.03
2023-06-19T17:49:06.815Z,97937.03
2023-06-19T17:51:34.043Z,97944.13
2023-06-19T17:54:04.936Z,97942.00
2023-06-19T17:56:32.168Z,97946.22
2023-06-19T17:58:58.778Z,97948.97
2023-06-19T18:01:25.785Z,97948.09
2023-06-19T18:03:52.937Z,97946.13
2023-06-19T18:06:19.626Z,97941.81
2023-06-19T18:08:46.289Z,97942.53
2023-06-19T18:11:12.845Z,97946.81
2023-06-19T18:13:40.089Z,97946.72
2023-06-19T18:16:12.482Z,97945.53
2023-06-19T18:18:40.144Z,97947.66
2023-06-19T18:21:06.931Z,97950.53
2023-06-19T18:23:33.993Z,97951.06
2023-06-19T18:26:00.680Z,97948.06
2023-06-19T18:28:27.208Z,97946.66
2023-06-19T18:30:54.021Z,97947.31
2023-06-19T18:33:20.634Z,97948.78
2023-06-19T18:35:47.283Z,97943.72
2023-06-19T18:38:14.337Z,97950.66
2023-06-19T18:40:42.360Z,97936.50
2023-06-19T18:43:09.114Z,97940.69
2023-06-19T18:45:35.854Z,97934.84
2023-06-19T18:48:02.664Z,97936.22
2023-06-19T18:50:29.722Z,97924.84
2023-06-19T18:52:56.296Z,97930.41
2023-06-19T18:55:23.128Z,97933.31
2023-06-19T18:57:49.824Z,97926.06
2023-06-19T19:00:17.536Z,97921.16
2023-06-19T19:02:44.397Z,97921.69
2023-06-19T19:05:11.279Z,97922.44
2023-06-19T19:07:38.005Z,97918.75
2023-06-19T19:10:04.982Z,97920.88
2023-06-19T19:12:31.572Z,97930.13
2023-06-19T19:14:58.113Z,97931.50
2023-06-19T19:17:24.768Z,97927.13
2023-06-19T19:19:51.657Z,97929.91
2023-06-19T19:22:18.202Z,97934.09
2023-06-19T19:24:44.834Z,97936.72
2023-06-19T19:27:11.509Z,97938.06
2023-06-19T19:29:38.052Z,97939.34
2023-06-19T19:32:04.905Z,97947.75
2023-06-19T19:34:31.434Z,97936.38
2023-06-19T19:36:58.023Z,97946.94
2023-06-19T19:39:24.573Z,97948.94
2023-06-19T19:41:51.137Z,97948.81
2023-06-19T19:44:17.743Z,97948.06
2023-06-19T19:46:44.450Z,97948.06
2023-06-19T19:49:11.031Z,97961.50
2023-06-19T19:51:37.603Z,97966.31
2023-06-19T19:54:04.312Z,97962.66
2023-06-19T19:56:30.923Z,97971.13
2023-06-19T19:58:58.102Z,97966.78
2023-06-19T20:01:24.698Z,97978.16
2023-06-19T20:03:51.511Z,97978.00
2023-06-19T20:06:18.344Z,97984.38
2023-06-19T20:08:44.956Z,97980.81
2023-06-19T20:11:15.224Z,97980.78
2023-06-19T20:13:41.875Z,97980.84
2023-06-19T20:16:10.284Z,97977.88
2023-06-19T20:18:37.290Z,97970.75
2023-06-19T20:21:04.071Z,97978.63
2023-06-19T20:23:30.770Z,97980.03
2023-06-19T20:25:57.365Z,97973.56
2023-06-19T20:28:24.441Z,97963.63
2023-06-19T20:30:51.155Z,97959.31
2023-06-19T20:33:17.737Z,97959.22
2023-06-19T20:35:47.737Z,97964.91
2023-06-19T20:38:14.468Z,97966.97
2023-06-19T20:40:41.033Z,97967.63
2023-06-19T20:43:08.757Z,97968.41
2023-06-19T20:45:35.325Z,97971.88
2023-06-19T20:48:03.617Z,97966.88
2023-06-19T20:50:30.244Z,97971.81
2023-06-19T20:52:57.475Z,97972.34
2023-06-19T20:55:24.062Z,97975.81
2023-06-19T20:57:50.674Z,97980.66
2023-06-19T21:00:17.982Z,97974.19
2023-06-19T21:02:45.069Z,97979.63
2023-06-19T21:05:18.043Z,97982.91
2023-06-19T21:07:45.806Z,97979.97
2023-06-19T21:10:12.819Z,97977.09
2023-06-19T21:12:39.331Z,97969.00
2023-06-19T21:15:06.335Z,97975.34
2023-06-19T21:17:32.941Z,97966.69
2023-06-19T21:19:59.625Z,97966.88
2023-06-19T21:22:26.160Z,97970.50
2023-06-19T21:24:52.732Z,97974.69
2023-06-19T21:27:19.265Z,97976.72
2023-06-19T21:29:45.781Z,97967.38
2023-06-19T21:32:12.712Z,97964.59
2023-06-19T21:34:39.235Z,97974.50
2023-06-19T21:37:06.114Z,97961.66
2023-06-19T21:39:32.620Z,97958.72
2023-06-19T21:41:59.200Z,97958.69
2023-06-19T21:44:25.762Z,97947.28
2023-06-19T21:46:52.361Z,97947.28
2023-06-19T21:49:18.960Z,97953.16
2023-06-19T21:51:45.497Z,97952.41
2023-06-19T21:54:12.111Z,97946.03
2023-06-19T21:56:38.896Z,97942.44
2023-06-19T21:59:05.452Z,97932.56
2023-06-19T22:01:32.018Z,97928.97
2023-06-19T22:03:58.860Z,97924.84
2023-06-19T22:06:25.456Z,97923.31
2023-06-19T22:08:51.993Z,97914.88
2023-06-19T22:11:18.582Z,97910.47
2023-06-19T22:13:45.122Z,97907.78
2023-06-19T22:16:11.779Z,97912.03
2023-06-19T22:18:38.397Z,97914.13
2023-06-19T22:21:05.085Z,97908.41
2023-06-19T22:23:31.673Z,97911.84
2023-06-19T22:25:58.251Z,97917.25
2023-06-19T22:28:24.927Z,97917.06
2023-06-19T22:30:51.461Z,97912.53
2023-06-19T22:33:18.224Z,97905.94
2023-06-19T22:35:44.766Z,97898.06
2023-06-19T22:38:11.376Z,97890.84
2023-06-19T22:40:38.221Z,97899.16
2023-06-19T22:43:04.735Z,97899.13
2023-06-19T22:45:31.298Z,97894.06
2023-06-19T22:47:57.970Z,97894.06
2023-06-19T22:50:26.605Z,97879.81
2023-06-19T22:52:53.466Z,97886.03
2023-06-19T22:55:21.389Z,97877.38
2023-06-19T22:57:48.301Z,97881.59
2023-06-19T23:00:15.325Z,97871.50
2023-06-19T23:02:43.099Z,97874.34
2023-06-19T23:05:11.002Z,97875.16
2023-06-19T23:07:38.171Z,97890.16
2023-06-19T23:10:05.283Z,97878.81
2023-06-19T23:12:31.952Z,97878.78
2023-06-19T23:14:58.528Z,97883.66
2023-06-19T23:17:25.104Z,97874.28
2023-06-19T23:19:52.129Z,97866.34
2023-06-19T23:22:18.760Z,97863.34
2023-06-19T23:24:45.369Z,97863.41
2023-06-19T23:27:11.904Z,97864.16
2023-06-19T23:29:38.496Z,97858.47
2023-06-19T23:32:05.833Z,97849.28
2023-06-19T23:34:35.436Z,97849.16
2023-06-19T23:37:02.535Z,97846.38
2023-06-19T23:39:29.207Z,97858.31
2023-06-19T23:41:55.779Z,97849.94
2023-06-19T23:44:22.307Z,97843.41
2023-06-19T23:46:48.933Z,97852.81
2023-06-19T23:49:15.695Z,97859.00
2023-06-19T23:51:42.416Z,97866.19
2023-06-19T23:54:08.966Z,97863.66
2023-06-19T23:56:35.510Z,97862.38
2023-06-19T23:59:02.064Z,97862.00
